MSC Clorinda — 3FDW7 — position and weather

sailwx.info

Track history (hours):
 
Tides and Currents Weather Stations Pressure Air Temp Water Temp Dewpoint Dewpoint Depression Visibility Wind Speed Wind Dir Waves Ship Positions

MSC Clorinda

Last reported at 2014-Nov-28 13:26 UTC. Time now 2014-Nov-28 15:43 UTC.
Position N 23°23' E 119°51'.

Length 366 m; draft 14.5 m.

Type: Ship (hazmat cat A). MMSI: 373233000.

Date/timePositionNaut miles runAvg speedWind from/ knotsBaromVisibWave heightAir tempDewpointWater temp
2014-Nov-28 13:26N 23°23' E 119°51'1618.0
2014-Nov-28 12:34N 23°38' E 119°52'1918.7
2014-Nov-28 11:33N 23°57' E 119°54'1919.1
2014-Nov-28 10:33N 24°16' E 119°58'1918.8
2014-Nov-28 09:33N 24°34' E 120°05'37616.3
2014-Nov-27 10:33N 30°20' E 122°50'2518.6
2014-Nov-27 09:13N 30°32' E 122°24'1014.8
2014-Nov-27 08:34N 30°33' E 122°13'8 7.7
2014-Nov-27 07:31N 30°37' E 122°05'0 0.0
2014-Nov-27 06:22N 30°37' E 122°05'0 0.0
2014-Nov-27 05:19N 30°37' E 122°05'0 0.0
2014-Nov-27 04:31N 30°37' E 122°05'0 0.0
2014-Nov-27 03:13N 30°37' E 122°05'0 0.0
2014-Nov-27 02:31N 30°37' E 122°05'0 0.0
2014-Nov-27 01:28N 30°37' E 122°05'0 0.0
2014-Nov-27 00:25N 30°37' E 122°05'0 0.0
2014-Nov-26 23:31N 30°37' E 122°05'0 0.0
2014-Nov-26 22:31N 30°37' E 122°05'0 0.0
2014-Nov-26 21:19N 30°37' E 122°05'0 0.0
2014-Nov-26 20:28N 30°37' E 122°05'0 0.0
2014-Nov-26 19:28N 30°37' E 122°05'2 2.5
2014-Nov-26 18:34N 30°35' E 122°07'9 8.5
2014-Nov-26 17:33N 30°34' E 122°16'1211.6
2014-Nov-26 16:30N 30°31' E 122°30'5 0.7
2014-Nov-26 08:28N 30°28' E 122°36'9 8.7
2014-Nov-26 07:23N 30°22' E 122°44'1012.0
2014-Nov-26 06:32N 30°12' E 122°48'1410.8
2014-Nov-26 05:16N 29°59' E 122°44'810.6
2014-Nov-26 04:33N 29°52' E 122°41'1111.1
2014-Nov-26 03:33N 29°42' E 122°35'1111.0
2014-Nov-26 02:33N 29°43' E 122°22'10 9.8
2014-Nov-26 01:33N 29°49' E 122°13'10 9.8
2014-Nov-26 00:33N 29°54' E 122°04'2 0.7
2014-Nov-25 22:13N 29°54' E 122°02'0 0.0
2014-Nov-25 20:13N 29°54' E 122°02'0 0.0
2014-Nov-25 18:31N 29°54' E 122°02'0 0.0
2014-Nov-25 17:25N 29°54' E 122°02'0 0.0
2014-Nov-25 16:19N 29°54' E 122°02'0 0.0
2014-Nov-25 15:13N 29°54' E 122°02'0 0.0
2014-Nov-25 13:12N 29°54' E 122°02'0 0.0
2014-Nov-25 10:12N 29°54' E 122°02'0 0.0
2014-Nov-25 07:30N 29°54' E 122°02'0 0.0
2014-Nov-25 03:06N 29°54' E 122°02'0 0.0
2014-Nov-25 01:33N 29°54' E 122°02'7 6.7
2014-Nov-25 00:33N 29°55' E 122°10'1212.1
2014-Nov-24 23:33N 29°46' E 122°18'1212.1
2014-Nov-24 22:33N 29°43' E 122°32'1514.9
2014-Nov-24 21:33N 29°51' E 122°47'37814.4
2014-Nov-23 19:16N 35°56' E 120°50'1318.7
2014-Nov-23 18:33N 35°58' E 120°34'1413.8
2014-Nov-23 17:33N 36°02' E 120°18'4 0.5
2014-Nov-23 08:18N 36°00' E 120°12'0 0.0
2014-Nov-23 06:06N 36°00' E 120°12'0 0.0
2014-Nov-23 01:12N 36°00' E 120°12'0 0.0
2014-Nov-22 23:12N 36°00' E 120°12'1 1.0
2014-Nov-22 22:33N 36°01' E 120°13'10 9.9
2014-Nov-22 21:33N 36°01' E 120°25'1212.3
2014-Nov-22 20:33N 35°58' E 120°40'  
2014-Nov-18 18:31N 37°60' E 122°29'5012.0
2014-Nov-18 14:21N 38°20' E 121°31'  
Track history (hours):
 
Tides and Currents Weather Stations Pressure Air Temp Water Temp Dewpoint Dewpoint Depression Visibility Wind Speed Wind Dir Waves Ship Positions

MSC Clorinda

Last reported at 2014-Nov-28 13:26 UTC. Time now 2014-Nov-28 15:43 UTC.
Position N 23°23' E 119°51'.

Length 366 m; draft 14.5 m.

Type: Ship (hazmat cat A). MMSI: 373233000.

Date/timePositionNaut miles runAvg speedWind from/ knotsBaromVisibWave heightAir tempDewpointWater temp
2014-Nov-28 13:26N 23°23' E 119°51'1618.0
2014-Nov-28 12:34N 23°38' E 119°52'1918.7
2014-Nov-28 11:33N 23°57' E 119°54'1919.1
2014-Nov-28 10:33N 24°16' E 119°58'1918.8
2014-Nov-28 09:33N 24°34' E 120°05'37616.3
2014-Nov-27 10:33N 30°20' E 122°50'2518.6
2014-Nov-27 09:13N 30°32' E 122°24'1014.8
2014-Nov-27 08:34N 30°33' E 122°13'8 7.7
2014-Nov-27 07:31N 30°37' E 122°05'0 0.0
2014-Nov-27 06:22N 30°37' E 122°05'0 0.0
2014-Nov-27 05:19N 30°37' E 122°05'0 0.0
2014-Nov-27 04:31N 30°37' E 122°05'0 0.0
2014-Nov-27 03:13N 30°37' E 122°05'0 0.0
2014-Nov-27 02:31N 30°37' E 122°05'0 0.0
2014-Nov-27 01:28N 30°37' E 122°05'0 0.0
2014-Nov-27 00:25N 30°37' E 122°05'0 0.0
2014-Nov-26 23:31N 30°37' E 122°05'0 0.0
2014-Nov-26 22:31N 30°37' E 122°05'0 0.0
2014-Nov-26 21:19N 30°37' E 122°05'0 0.0
2014-Nov-26 20:28N 30°37' E 122°05'0 0.0
2014-Nov-26 19:28N 30°37' E 122°05'2 2.5
2014-Nov-26 18:34N 30°35' E 122°07'9 8.5
2014-Nov-26 17:33N 30°34' E 122°16'1211.6
2014-Nov-26 16:30N 30°31' E 122°30'5 0.7
2014-Nov-26 08:28N 30°28' E 122°36'9 8.7
2014-Nov-26 07:23N 30°22' E 122°44'1012.0
2014-Nov-26 06:32N 30°12' E 122°48'1410.8
2014-Nov-26 05:16N 29°59' E 122°44'810.6
2014-Nov-26 04:33N 29°52' E 122°41'1111.1
2014-Nov-26 03:33N 29°42' E 122°35'1111.0
2014-Nov-26 02:33N 29°43' E 122°22'10 9.8
2014-Nov-26 01:33N 29°49' E 122°13'10 9.8
2014-Nov-26 00:33N 29°54' E 122°04'2 0.7
2014-Nov-25 22:13N 29°54' E 122°02'0 0.0
2014-Nov-25 20:13N 29°54' E 122°02'0 0.0
2014-Nov-25 18:31N 29°54' E 122°02'0 0.0
2014-Nov-25 17:25N 29°54' E 122°02'0 0.0
2014-Nov-25 16:19N 29°54' E 122°02'0 0.0
2014-Nov-25 15:13N 29°54' E 122°02'0 0.0
2014-Nov-25 13:12N 29°54' E 122°02'0 0.0
2014-Nov-25 10:12N 29°54' E 122°02'0 0.0
2014-Nov-25 07:30N 29°54' E 122°02'0 0.0
2014-Nov-25 03:06N 29°54' E 122°02'0 0.0
2014-Nov-25 01:33N 29°54' E 122°02'7 6.7
2014-Nov-25 00:33N 29°55' E 122°10'1212.1
2014-Nov-24 23:33N 29°46' E 122°18'1212.1
2014-Nov-24 22:33N 29°43' E 122°32'1514.9
2014-Nov-24 21:33N 29°51' E 122°47'37814.4
2014-Nov-23 19:16N 35°56' E 120°50'1318.7
2014-Nov-23 18:33N 35°58' E 120°34'1413.8
2014-Nov-23 17:33N 36°02' E 120°18'4 0.5
2014-Nov-23 08:18N 36°00' E 120°12'0 0.0
2014-Nov-23 06:06N 36°00' E 120°12'0 0.0
2014-Nov-23 01:12N 36°00' E 120°12'0 0.0
2014-Nov-22 23:12N 36°00' E 120°12'1 1.0
2014-Nov-22 22:33N 36°01' E 120°13'10 9.9
2014-Nov-22 21:33N 36°01' E 120°25'1212.3
2014-Nov-22 20:33N 35°58' E 120°40'  
2014-Nov-18 18:31N 37°60' E 122°29'5012.0
2014-Nov-18 14:21N 38°20' E 121°31'  

Dump ship's entire track history